sensor_id;sensor_type;location;lat;lon;timestamp;P1;durP1;ratioP1;P2;durP2;ratioP2
10979;SDS011;5543;51.734;8.744;2023-04-25T00:00:25;3.65;;;1.20;;
10979;SDS011;5543;51.734;8.744;2023-04-25T00:02:54;1.88;;;1.20;;
10979;SDS011;5543;51.734;8.744;2023-04-25T00:05:23;1.25;;;0.68;;
10979;SDS011;5543;51.734;8.744;2023-04-25T00:07:52;1.55;;;1.33;;
10979;SDS011;5543;51.734;8.744;2023-04-25T00:10:20;1.73;;;1.00;;
10979;SDS011;5543;51.734;8.744;2023-04-25T00:12:49;1.35;;;0.90;;
10979;SDS011;5543;51.734;8.744;2023-04-25T00:15:19;0.82;;;0.80;;
10979;SDS011;5543;51.734;8.744;2023-04-25T00:17:47;1.80;;;0.85;;
10979;SDS011;5543;51.734;8.744;2023-04-25T00:20:15;0.88;;;0.88;;
10979;SDS011;5543;51.734;8.744;2023-04-25T00:22:43;1.17;;;1.00;;
10979;SDS011;5543;51.734;8.744;2023-04-25T00:25:11;1.80;;;1.40;;
10979;SDS011;5543;51.734;8.744;2023-04-25T00:27:39;0.52;;;0.52;;
10979;SDS011;5543;51.734;8.744;2023-04-25T00:30:08;1.33;;;0.95;;
10979;SDS011;5543;51.734;8.744;2023-04-25T00:32:38;0.90;;;0.77;;
10979;SDS011;5543;51.734;8.744;2023-04-25T00:35:06;0.55;;;0.55;;
10979;SDS011;5543;51.734;8.744;2023-04-25T00:37:36;0.77;;;0.77;;
10979;SDS011;5543;51.734;8.744;2023-04-25T00:40:04;0.70;;;0.70;;
10979;SDS011;5543;51.734;8.744;2023-04-25T00:42:34;1.05;;;0.57;;
10979;SDS011;5543;51.734;8.744;2023-04-25T00:45:04;2.03;;;1.10;;
10979;SDS011;5543;51.734;8.744;2023-04-25T00:47:34;1.08;;;0.98;;
10979;SDS011;5543;51.734;8.744;2023-04-25T00:50:06;1.23;;;0.77;;
10979;SDS011;5543;51.734;8.744;2023-04-25T00:52:35;2.15;;;1.17;;
10979;SDS011;5543;51.734;8.744;2023-04-25T00:55:05;2.50;;;0.82;;
10979;SDS011;5543;51.734;8.744;2023-04-25T00:57:33;0.73;;;0.73;;
10979;SDS011;5543;51.734;8.744;2023-04-25T01:00:02;1.05;;;0.98;;
10979;SDS011;5543;51.734;8.744;2023-04-25T01:02:32;1.10;;;1.00;;
10979;SDS011;5543;51.734;8.744;2023-04-25T01:05:02;1.23;;;0.93;;
10979;SDS011;5543;51.734;8.744;2023-04-25T01:07:32;2.20;;;1.35;;
10979;SDS011;5543;51.734;8.744;2023-04-25T01:10:01;4.32;;;1.52;;
10979;SDS011;5543;51.734;8.744;2023-04-25T01:12:30;1.05;;;0.95;;
10979;SDS011;5543;51.734;8.744;2023-04-25T01:14:58;1.05;;;0.98;;
10979;SDS011;5543;51.734;8.744;2023-04-25T01:17:26;2.85;;;1.50;;
10979;SDS011;5543;51.734;8.744;2023-04-25T01:19:55;0.95;;;0.88;;
10979;SDS011;5543;51.734;8.744;2023-04-25T01:22:25;0.57;;;0.57;;
10979;SDS011;5543;51.734;8.744;2023-04-25T01:24:53;0.57;;;0.57;;
10979;SDS011;5543;51.734;8.744;2023-04-25T01:27:21;1.73;;;1.35;;
10979;SDS011;5543;51.734;8.744;2023-04-25T01:29:49;1.80;;;1.10;;
10979;SDS011;5543;51.734;8.744;2023-04-25T01:32:18;2.20;;;1.58;;
10979;SDS011;5543;51.734;8.744;2023-04-25T01:34:46;1.52;;;1.35;;
10979;SDS011;5543;51.734;8.744;2023-04-25T01:37:15;2.35;;;1.42;;
10979;SDS011;5543;51.734;8.744;2023-04-25T01:39:45;0.73;;;0.68;;
10979;SDS011;5543;51.734;8.744;2023-04-25T01:42:14;1.05;;;0.95;;
10979;SDS011;5543;51.734;8.744;2023-04-25T01:44:43;1.52;;;1.42;;
10979;SDS011;5543;51.734;8.744;2023-04-25T01:47:11;1.65;;;0.82;;
10979;SDS011;5543;51.734;8.744;2023-04-25T01:49:39;1.48;;;0.98;;
10979;SDS011;5543;51.734;8.744;2023-04-25T01:52:07;1.42;;;1.23;;
10979;SDS011;5543;51.734;8.744;2023-04-25T01:54:35;1.80;;;1.20;;
10979;SDS011;5543;51.734;8.744;2023-04-25T01:57:04;1.58;;;1.23;;
10979;SDS011;5543;51.734;8.744;2023-04-25T01:59:32;1.38;;;1.00;;
10979;SDS011;5543;51.734;8.744;2023-04-25T02:02:00;1.23;;;0.90;;
10979;SDS011;5543;51.734;8.744;2023-04-25T02:04:29;2.75;;;1.63;;
10979;SDS011;5543;51.734;8.744;2023-04-25T02:06:58;1.60;;;1.35;;
10979;SDS011;5543;51.734;8.744;2023-04-25T02:09:26;0.65;;;0.55;;
10979;SDS011;5543;51.734;8.744;2023-04-25T02:11:54;1.45;;;0.95;;
10979;SDS011;5543;51.734;8.744;2023-04-25T02:14:24;2.00;;;1.35;;
10979;SDS011;5543;51.734;8.744;2023-04-25T02:16:52;2.08;;;1.15;;
10979;SDS011;5543;51.734;8.744;2023-04-25T02:19:20;1.05;;;0.93;;
10979;SDS011;5543;51.734;8.744;2023-04-25T02:21:48;2.70;;;1.45;;
10979;SDS011;5543;51.734;8.744;2023-04-25T02:24:16;2.00;;;1.08;;
10979;SDS011;5543;51.734;8.744;2023-04-25T02:26:44;1.90;;;1.60;;
10979;SDS011;5543;51.734;8.744;2023-04-25T02:29:13;2.17;;;1.42;;
10979;SDS011;5543;51.734;8.744;2023-04-25T02:31:42;0.57;;;0.57;;
10979;SDS011;5543;51.734;8.744;2023-04-25T02:34:11;0.75;;;0.73;;
10979;SDS011;5543;51.734;8.744;2023-04-25T02:36:39;1.15;;;1.02;;
10979;SDS011;5543;51.734;8.744;2023-04-25T02:39:07;1.33;;;1.20;;
10979;SDS011;5543;51.734;8.744;2023-04-25T02:41:35;1.20;;;1.10;;
10979;SDS011;5543;51.734;8.744;2023-04-25T02:44:03;2.60;;;1.90;;
10979;SDS011;5543;51.734;8.744;2023-04-25T02:46:31;1.33;;;1.15;;
10979;SDS011;5543;51.734;8.744;2023-04-25T02:49:06;1.35;;;1.25;;
10979;SDS011;5543;51.734;8.744;2023-04-25T02:51:34;1.48;;;0.90;;
10979;SDS011;5543;51.734;8.744;2023-04-25T02:54:02;1.88;;;1.30;;
10979;SDS011;5543;51.734;8.744;2023-04-25T02:56:32;1.90;;;1.65;;
10979;SDS011;5543;51.734;8.744;2023-04-25T02:59:00;1.73;;;1.00;;
10979;SDS011;5543;51.734;8.744;2023-04-25T03:01:28;1.27;;;1.13;;
10979;SDS011;5543;51.734;8.744;2023-04-25T03:03:57;1.65;;;1.38;;
10979;SDS011;5543;51.734;8.744;2023-04-25T03:06:26;2.72;;;1.95;;
10979;SDS011;5543;51.734;8.744;2023-04-25T03:08:54;2.53;;;1.58;;
10979;SDS011;5543;51.734;8.744;2023-04-25T03:11:24;2.67;;;1.67;;
10979;SDS011;5543;51.734;8.744;2023-04-25T03:13:52;2.10;;;1.67;;
10979;SDS011;5543;51.734;8.744;2023-04-25T03:16:21;1.05;;;1.05;;
10979;SDS011;5543;51.734;8.744;2023-04-25T03:18:49;4.65;;;1.27;;
10979;SDS011;5543;51.734;8.744;2023-04-25T03:21:17;0.95;;;0.95;;
10979;SDS011;5543;51.734;8.744;2023-04-25T03:23:47;3.58;;;1.23;;
10979;SDS011;5543;51.734;8.744;2023-04-25T03:26:15;2.17;;;1.90;;
10979;SDS011;5543;51.734;8.744;2023-04-25T03:28:43;3.70;;;1.67;;
10979;SDS011;5543;51.734;8.744;2023-04-25T03:31:11;0.98;;;0.80;;
10979;SDS011;5543;51.734;8.744;2023-04-25T03:33:39;1.55;;;1.42;;
10979;SDS011;5543;51.734;8.744;2023-04-25T03:36:08;0.65;;;0.65;;
10979;SDS011;5543;51.734;8.744;2023-04-25T03:38:36;2.63;;;1.25;;
10979;SDS011;5543;51.734;8.744;2023-04-25T03:41:05;2.25;;;1.48;;
10979;SDS011;5543;51.734;8.744;2023-04-25T03:43:33;2.13;;;1.35;;
10979;SDS011;5543;51.734;8.744;2023-04-25T03:46:01;2.65;;;1.52;;
10979;SDS011;5543;51.734;8.744;2023-04-25T03:48:29;0.90;;;0.85;;
10979;SDS011;5543;51.734;8.744;2023-04-25T03:50:58;1.48;;;1.30;;
10979;SDS011;5543;51.734;8.744;2023-04-25T03:53:26;1.20;;;1.10;;
10979;SDS011;5543;51.734;8.744;2023-04-25T03:55:54;0.95;;;0.90;;
10979;SDS011;5543;51.734;8.744;2023-04-25T03:58:23;1.52;;;0.98;;
10979;SDS011;5543;51.734;8.744;2023-04-25T04:00:51;1.42;;;1.25;;
10979;SDS011;5543;51.734;8.744;2023-04-25T04:03:19;2.20;;;1.08;;
10979;SDS011;5543;51.734;8.744;2023-04-25T04:05:48;1.50;;;1.40;;
10979;SDS011;5543;51.734;8.744;2023-04-25T04:08:16;1.95;;;1.77;;
10979;SDS011;5543;51.734;8.744;2023-04-25T04:10:44;1.15;;;1.05;;
10979;SDS011;5543;51.734;8.744;2023-04-25T04:13:13;1.85;;;1.50;;
10979;SDS011;5543;51.734;8.744;2023-04-25T04:15:42;1.05;;;1.02;;
10979;SDS011;5543;51.734;8.744;2023-04-25T04:18:10;2.38;;;1.67;;
10979;SDS011;5543;51.734;8.744;2023-04-25T04:20:38;0.75;;;0.73;;
10979;SDS011;5543;51.734;8.744;2023-04-25T04:23:06;1.42;;;1.33;;
10979;SDS011;5543;51.734;8.744;2023-04-25T04:25:34;1.42;;;0.95;;
10979;SDS011;5543;51.734;8.744;2023-04-25T04:28:03;1.75;;;1.33;;
10979;SDS011;5543;51.734;8.744;2023-04-25T04:30:32;1.63;;;1.38;;
10979;SDS011;5543;51.734;8.744;2023-04-25T04:33:03;1.48;;;1.38;;
10979;SDS011;5543;51.734;8.744;2023-04-25T04:35:33;0.88;;;0.75;;
10979;SDS011;5543;51.734;8.744;2023-04-25T04:38:01;1.05;;;1.00;;
10979;SDS011;5543;51.734;8.744;2023-04-25T04:40:29;1.13;;;0.98;;
10979;SDS011;5543;51.734;8.744;2023-04-25T04:42:58;1.38;;;1.02;;
10979;SDS011;5543;51.734;8.744;2023-04-25T04:45:26;0.63;;;0.63;;
10979;SDS011;5543;51.734;8.744;2023-04-25T04:47:54;0.80;;;0.60;;
10979;SDS011;5543;51.734;8.744;2023-04-25T04:50:24;0.85;;;0.73;;
10979;SDS011;5543;51.734;8.744;2023-04-25T04:52:53;3.42;;;1.27;;
10979;SDS011;5543;51.734;8.744;2023-04-25T04:55:21;1.10;;;1.00;;
10979;SDS011;5543;51.734;8.744;2023-04-25T04:57:49;2.72;;;2.17;;
10979;SDS011;5543;51.734;8.744;2023-04-25T05:00:18;0.98;;;0.73;;
10979;SDS011;5543;51.734;8.744;2023-04-25T05:02:47;0.80;;;0.70;;
10979;SDS011;5543;51.734;8.744;2023-04-25T05:05:15;1.48;;;1.38;;
10979;SDS011;5543;51.734;8.744;2023-04-25T05:07:45;0.93;;;0.90;;
10979;SDS011;5543;51.734;8.744;2023-04-25T05:10:13;0.85;;;0.55;;
10979;SDS011;5543;51.734;8.744;2023-04-25T05:12:41;2.97;;;1.55;;
10979;SDS011;5543;51.734;8.744;2023-04-25T05:15:09;0.68;;;0.63;;
10979;SDS011;5543;51.734;8.744;2023-04-25T05:17:38;1.25;;;1.15;;
10979;SDS011;5543;51.734;8.744;2023-04-25T05:20:06;0.65;;;0.63;;
10979;SDS011;5543;51.734;8.744;2023-04-25T05:22:35;0.63;;;0.63;;
10979;SDS011;5543;51.734;8.744;2023-04-25T05:25:05;0.50;;;0.50;;
10979;SDS011;5543;51.734;8.744;2023-04-25T05:27:33;1.33;;;1.23;;
10979;SDS011;5543;51.734;8.744;2023-04-25T05:30:02;1.15;;;1.05;;
10979;SDS011;5543;51.734;8.744;2023-04-25T05:32:31;1.77;;;1.10;;
10979;SDS011;5543;51.734;8.744;2023-04-25T05:34:59;1.88;;;1.08;;
10979;SDS011;5543;51.734;8.744;2023-04-25T05:37:27;0.70;;;0.70;;
10979;SDS011;5543;51.734;8.744;2023-04-25T05:39:56;0.75;;;0.75;;
10979;SDS011;5543;51.734;8.744;2023-04-25T05:42:26;3.33;;;1.15;;
10979;SDS011;5543;51.734;8.744;2023-04-25T05:44:54;1.27;;;0.68;;
10979;SDS011;5543;51.734;8.744;2023-04-25T05:47:23;0.45;;;0.45;;
10979;SDS011;5543;51.734;8.744;2023-04-25T05:49:51;0.57;;;0.57;;
10979;SDS011;5543;51.734;8.744;2023-04-25T05:52:19;2.88;;;0.88;;
10979;SDS011;5543;51.734;8.744;2023-04-25T05:54:47;1.05;;;0.95;;
10979;SDS011;5543;51.734;8.744;2023-04-25T05:57:19;0.82;;;0.80;;
10979;SDS011;5543;51.734;8.744;2023-04-25T05:59:50;0.68;;;0.68;;
10979;SDS011;5543;51.734;8.744;2023-04-25T06:02:18;0.57;;;0.50;;
10979;SDS011;5543;51.734;8.744;2023-04-25T06:04:47;0.63;;;0.25;;
10979;SDS011;5543;51.734;8.744;2023-04-25T06:07:17;0.73;;;0.73;;
10979;SDS011;5543;51.734;8.744;2023-04-25T06:09:45;0.70;;;0.70;;
10979;SDS011;5543;51.734;8.744;2023-04-25T06:12:13;0.75;;;0.75;;
10979;SDS011;5543;51.734;8.744;2023-04-25T06:14:41;0.52;;;0.50;;
10979;SDS011;5543;51.734;8.744;2023-04-25T06:17:10;0.40;;;0.40;;
10979;SDS011;5543;51.734;8.744;2023-04-25T06:19:39;1.00;;;0.90;;
10979;SDS011;5543;51.734;8.744;2023-04-25T06:22:07;0.32;;;0.32;;
10979;SDS011;5543;51.734;8.744;2023-04-25T06:24:35;0.93;;;0.68;;
10979;SDS011;5543;51.734;8.744;2023-04-25T06:27:03;1.00;;;0.90;;
10979;SDS011;5543;51.734;8.744;2023-04-25T06:29:31;0.50;;;0.50;;
10979;SDS011;5543;51.734;8.744;2023-04-25T06:31:59;0.75;;;0.68;;
10979;SDS011;5543;51.734;8.744;2023-04-25T06:34:29;0.77;;;0.77;;
10979;SDS011;5543;51.734;8.744;2023-04-25T06:36:57;0.75;;;0.70;;
10979;SDS011;5543;51.734;8.744;2023-04-25T06:39:25;1.27;;;0.80;;
10979;SDS011;5543;51.734;8.744;2023-04-25T06:41:53;1.17;;;0.88;;
10979;SDS011;5543;51.734;8.744;2023-04-25T06:44:22;0.70;;;0.70;;
10979;SDS011;5543;51.734;8.744;2023-04-25T06:46:52;0.50;;;0.50;;
10979;SDS011;5543;51.734;8.744;2023-04-25T06:49:22;0.50;;;0.50;;
10979;SDS011;5543;51.734;8.744;2023-04-25T06:51:52;1.23;;;1.13;;
10979;SDS011;5543;51.734;8.744;2023-04-25T06:54:20;0.80;;;0.70;;
10979;SDS011;5543;51.734;8.744;2023-04-25T06:56:48;0.45;;;0.40;;
10979;SDS011;5543;51.734;8.744;2023-04-25T06:59:16;1.52;;;1.25;;
10979;SDS011;5543;51.734;8.744;2023-04-25T07:01:44;0.63;;;0.63;;
10979;SDS011;5543;51.734;8.744;2023-04-25T07:04:13;0.45;;;0.45;;
10979;SDS011;5543;51.734;8.744;2023-04-25T07:06:42;1.00;;;0.80;;
10979;SDS011;5543;51.734;8.744;2023-04-25T07:09:11;0.60;;;0.60;;
10979;SDS011;5543;51.734;8.744;2023-04-25T07:11:39;1.52;;;1.27;;
10979;SDS011;5543;51.734;8.744;2023-04-25T07:14:09;0.50;;;0.50;;
10979;SDS011;5543;51.734;8.744;2023-04-25T07:16:37;0.60;;;0.60;;
10979;SDS011;5543;51.734;8.744;2023-04-25T07:19:06;2.15;;;0.85;;
10979;SDS011;5543;51.734;8.744;2023-04-25T07:21:36;0.50;;;0.50;;
10979;SDS011;5543;51.734;8.744;2023-04-25T07:24:16;1.38;;;0.50;;
10979;SDS011;5543;51.734;8.744;2023-04-25T07:26:44;1.60;;;0.70;;
10979;SDS011;5543;51.734;8.744;2023-04-25T07:29:12;2.42;;;0.88;;
10979;SDS011;5543;51.734;8.744;2023-04-25T07:31:40;0.43;;;0.43;;
10979;SDS011;5543;51.734;8.744;2023-04-25T07:34:08;0.50;;;0.45;;
10979;SDS011;5543;51.734;8.744;2023-04-25T07:36:39;0.38;;;0.38;;
10979;SDS011;5543;51.734;8.744;2023-04-25T07:39:07;0.63;;;0.47;;
10979;SDS011;5543;51.734;8.744;2023-04-25T07:41:37;0.30;;;0.30;;
10979;SDS011;5543;51.734;8.744;2023-04-25T07:44:05;0.80;;;0.80;;
10979;SDS011;5543;51.734;8.744;2023-04-25T07:46:33;0.55;;;0.28;;
10979;SDS011;5543;51.734;8.744;2023-04-25T07:49:04;1.38;;;0.68;;
10979;SDS011;5543;51.734;8.744;2023-04-25T07:51:32;0.30;;;0.30;;
10979;SDS011;5543;51.734;8.744;2023-04-25T07:54:00;1.80;;;0.57;;
10979;SDS011;5543;51.734;8.744;2023-04-25T07:56:28;0.40;;;0.40;;
10979;SDS011;5543;51.734;8.744;2023-04-25T07:59:18;0.13;;;0.13;;
10979;SDS011;5543;51.734;8.744;2023-04-25T08:01:46;1.30;;;1.20;;
10979;SDS011;5543;51.734;8.744;2023-04-25T08:04:15;0.40;;;0.40;;
10979;SDS011;5543;51.734;8.744;2023-04-25T08:06:43;1.38;;;0.75;;
10979;SDS011;5543;51.734;8.744;2023-04-25T08:09:12;0.28;;;0.28;;
10979;SDS011;5543;51.734;8.744;2023-04-25T08:11:41;0.80;;;0.47;;
10979;SDS011;5543;51.734;8.744;2023-04-25T08:14:10;0.60;;;0.60;;
10979;SDS011;5543;51.734;8.744;2023-04-25T08:16:40;1.05;;;0.60;;
10979;SDS011;5543;51.734;8.744;2023-04-25T08:19:09;0.82;;;0.52;;
10979;SDS011;5543;51.734;8.744;2023-04-25T08:21:37;0.25;;;0.25;;
10979;SDS011;5543;51.734;8.744;2023-04-25T08:24:05;0.25;;;0.20;;
10979;SDS011;5543;51.734;8.744;2023-04-25T08:26:34;1.00;;;0.32;;
10979;SDS011;5543;51.734;8.744;2023-04-25T08:29:03;0.65;;;0.63;;
10979;SDS011;5543;51.734;8.744;2023-04-25T08:31:32;0.80;;;0.52;;
10979;SDS011;5543;51.734;8.744;2023-04-25T08:34:02;0.10;;;0.10;;
10979;SDS011;5543;51.734;8.744;2023-04-25T08:36:30;0.17;;;0.17;;
10979;SDS011;5543;51.734;8.744;2023-04-25T08:39:05;0.30;;;0.30;;
10979;SDS011;5543;51.734;8.744;2023-04-25T08:41:34;0.10;;;0.10;;
10979;SDS011;5543;51.734;8.744;2023-04-25T08:44:03;0.35;;;0.35;;
10979;SDS011;5543;51.734;8.744;2023-04-25T08:46:34;0.28;;;0.20;;
10979;SDS011;5543;51.734;8.744;2023-04-25T08:49:06;0.30;;;0.30;;
10979;SDS011;5543;51.734;8.744;2023-04-25T08:51:38;1.48;;;1.00;;
10979;SDS011;5543;51.734;8.744;2023-04-25T08:54:11;0.10;;;0.10;;
10979;SDS011;5543;51.734;8.744;2023-04-25T08:57:00;0.28;;;0.28;;
10979;SDS011;5543;51.734;8.744;2023-04-25T08:59:30;0.63;;;0.63;;
10979;SDS011;5543;51.734;8.744;2023-04-25T09:02:01;0.25;;;0.25;;
10979;SDS011;5543;51.734;8.744;2023-04-25T09:04:31;0.30;;;0.30;;
10979;SDS011;5543;51.734;8.744;2023-04-25T09:07:00;0.45;;;0.45;;
10979;SDS011;5543;51.734;8.744;2023-04-25T09:09:29;0.55;;;0.43;;
10979;SDS011;5543;51.734;8.744;2023-04-25T09:11:57;0.10;;;0.10;;
10979;SDS011;5543;51.734;8.744;2023-04-25T09:14:27;1.27;;;0.60;;
10979;SDS011;5543;51.734;8.744;2023-04-25T09:16:59;0.38;;;0.20;;
10979;SDS011;5543;51.734;8.744;2023-04-25T09:19:29;0.20;;;0.20;;
10979;SDS011;5543;51.734;8.744;2023-04-25T09:22:07;0.40;;;0.40;;
10979;SDS011;5543;51.734;8.744;2023-04-25T09:24:36;0.20;;;0.20;;
10979;SDS011;5543;51.734;8.744;2023-04-25T09:27:05;0.20;;;0.20;;
10979;SDS011;5543;51.734;8.744;2023-04-25T09:29:34;0.20;;;0.20;;
10979;SDS011;5543;51.734;8.744;2023-04-25T09:32:11;0.35;;;0.35;;
10979;SDS011;5543;51.734;8.744;2023-04-25T09:34:45;0.20;;;0.20;;
10979;SDS011;5543;51.734;8.744;2023-04-25T09:37:18;1.95;;;0.40;;
10979;SDS011;5543;51.734;8.744;2023-04-25T09:39:48;1.67;;;0.57;;
10979;SDS011;5543;51.734;8.744;2023-04-25T09:42:17;0.30;;;0.30;;
10979;SDS011;5543;51.734;8.744;2023-04-25T09:44:46;0.30;;;0.28;;
10979;SDS011;5543;51.734;8.744;2023-04-25T09:47:15;0.10;;;0.10;;
10979;SDS011;5543;51.734;8.744;2023-04-25T09:49:45;0.08;;;0.08;;
10979;SDS011;5543;51.734;8.744;2023-04-25T09:52:14;0.20;;;0.20;;
10979;SDS011;5543;51.734;8.744;2023-04-25T09:54:43;0.60;;;0.57;;
10979;SDS011;5543;51.734;8.744;2023-04-25T09:57:13;1.17;;;1.08;;
10979;SDS011;5543;51.734;8.744;2023-04-25T09:59:43;0.50;;;0.32;;
10979;SDS011;5543;51.734;8.744;2023-04-25T10:02:13;0.10;;;0.10;;
10979;SDS011;5543;51.734;8.744;2023-04-25T10:04:43;0.38;;;0.35;;
10979;SDS011;5543;51.734;8.744;2023-04-25T10:07:15;0.55;;;0.50;;
10979;SDS011;5543;51.734;8.744;2023-04-25T10:09:47;0.40;;;0.40;;
10979;SDS011;5543;51.734;8.744;2023-04-25T10:12:16;0.98;;;0.55;;
10979;SDS011;5543;51.734;8.744;2023-04-25T10:14:45;0.50;;;0.50;;
10979;SDS011;5543;51.734;8.744;2023-04-25T10:17:14;0.85;;;0.60;;
10979;SDS011;5543;51.734;8.744;2023-04-25T10:19:42;0.30;;;0.30;;
10979;SDS011;5543;51.734;8.744;2023-04-25T10:22:13;0.35;;;0.32;;
10979;SDS011;5543;51.734;8.744;2023-04-25T10:24:44;0.20;;;0.20;;
10979;SDS011;5543;51.734;8.744;2023-04-25T10:27:14;0.22;;;0.22;;
10979;SDS011;5543;51.734;8.744;2023-04-25T10:29:42;0.45;;;0.43;;
10979;SDS011;5543;51.734;8.744;2023-04-25T10:32:10;0.45;;;0.45;;
10979;SDS011;5543;51.734;8.744;2023-04-25T10:34:39;0.55;;;0.20;;
10979;SDS011;5543;51.734;8.744;2023-04-25T10:37:08;0.38;;;0.38;;
10979;SDS011;5543;51.734;8.744;2023-04-25T10:39:39;0.40;;;0.40;;
10979;SDS011;5543;51.734;8.744;2023-04-25T10:42:08;0.20;;;0.20;;
10979;SDS011;5543;51.734;8.744;2023-04-25T10:44:37;0.32;;;0.32;;
10979;SDS011;5543;51.734;8.744;2023-04-25T10:47:06;0.25;;;0.25;;
10979;SDS011;5543;51.734;8.744;2023-04-25T10:49:36;0.38;;;0.25;;
10979;SDS011;5543;51.734;8.744;2023-04-25T10:52:16;1.00;;;0.85;;
10979;SDS011;5543;51.734;8.744;2023-04-25T10:54:51;0.30;;;0.30;;
10979;SDS011;5543;51.734;8.744;2023-04-25T10:57:30;0.17;;;0.17;;
10979;SDS011;5543;51.734;8.744;2023-04-25T11:00:06;0.20;;;0.20;;
10979;SDS011;5543;51.734;8.744;2023-04-25T11:02:38;0.20;;;0.20;;
10979;SDS011;5543;51.734;8.744;2023-04-25T11:05:09;0.50;;;0.50;;
10979;SDS011;5543;51.734;8.744;2023-04-25T11:07:39;0.30;;;0.30;;
10979;SDS011;5543;51.734;8.744;2023-04-25T11:10:31;0.10;;;0.10;;
10979;SDS011;5543;51.734;8.744;2023-04-25T11:13:01;0.90;;;0.30;;
10979;SDS011;5543;51.734;8.744;2023-04-25T11:15:29;0.10;;;0.10;;
10979;SDS011;5543;51.734;8.744;2023-04-25T11:17:58;0.30;;;0.30;;
10979;SDS011;5543;51.734;8.744;2023-04-25T11:20:26;0.93;;;0.43;;
10979;SDS011;5543;51.734;8.744;2023-04-25T11:22:57;0.28;;;0.28;;
10979;SDS011;5543;51.734;8.744;2023-04-25T11:25:26;0.20;;;0.20;;
10979;SDS011;5543;51.734;8.744;2023-04-25T11:27:57;0.20;;;0.17;;
10979;SDS011;5543;51.734;8.744;2023-04-25T11:30:27;0.38;;;0.32;;
10979;SDS011;5543;51.734;8.744;2023-04-25T11:32:57;1.00;;;0.50;;
10979;SDS011;5543;51.734;8.744;2023-04-25T11:35:25;0.20;;;0.20;;
10979;SDS011;5543;51.734;8.744;2023-04-25T11:37:53;0.10;;;0.10;;
10979;SDS011;5543;51.734;8.744;2023-04-25T11:40:22;0.30;;;0.30;;
10979;SDS011;5543;51.734;8.744;2023-04-25T11:42:50;0.38;;;0.38;;
10979;SDS011;5543;51.734;8.744;2023-04-25T11:45:22;0.30;;;0.30;;
10979;SDS011;5543;51.734;8.744;2023-04-25T11:47:51;0.05;;;0.05;;
10979;SDS011;5543;51.734;8.744;2023-04-25T11:50:19;0.40;;;0.30;;
10979;SDS011;5543;51.734;8.744;2023-04-25T11:52:47;0.45;;;0.45;;
10979;SDS011;5543;51.734;8.744;2023-04-25T11:55:17;0.40;;;0.40;;
10979;SDS011;5543;51.734;8.744;2023-04-25T11:57:46;0.17;;;0.17;;
10979;SDS011;5543;51.734;8.744;2023-04-25T12:00:17;0.22;;;0.22;;
10979;SDS011;5543;51.734;8.744;2023-04-25T12:02:50;0.60;;;0.35;;
10979;SDS011;5543;51.734;8.744;2023-04-25T12:05:21;0.20;;;0.20;;
10979;SDS011;5543;51.734;8.744;2023-04-25T12:08:09;0.28;;;0.20;;
10979;SDS011;5543;51.734;8.744;2023-04-25T12:10:39;0.30;;;0.30;;
10979;SDS011;5543;51.734;8.744;2023-04-25T12:13:19;0.40;;;0.40;;
10979;SDS011;5543;51.734;8.744;2023-04-25T12:15:49;0.30;;;0.30;;
10979;SDS011;5543;51.734;8.744;2023-04-25T12:18:20;0.13;;;0.13;;
10979;SDS011;5543;51.734;8.744;2023-04-25T12:20:50;0.38;;;0.38;;
10979;SDS011;5543;51.734;8.744;2023-04-25T12:23:24;0.15;;;0.10;;
10979;SDS011;5543;51.734;8.744;2023-04-25T12:25:53;0.10;;;0.10;;
10979;SDS011;5543;51.734;8.744;2023-04-25T12:28:22;0.20;;;0.20;;
10979;SDS011;5543;51.734;8.744;2023-04-25T12:30:54;0.30;;;0.25;;
10979;SDS011;5543;51.734;8.744;2023-04-25T12:33:25;0.40;;;0.22;;
10979;SDS011;5543;51.734;8.744;2023-04-25T12:35:54;0.20;;;0.20;;
10979;SDS011;5543;51.734;8.744;2023-04-25T12:38:24;0.52;;;0.32;;
10979;SDS011;5543;51.734;8.744;2023-04-25T12:40:53;0.20;;;0.20;;
10979;SDS011;5543;51.734;8.744;2023-04-25T12:43:22;0.30;;;0.30;;
10979;SDS011;5543;51.734;8.744;2023-04-25T12:45:50;0.28;;;0.28;;
10979;SDS011;5543;51.734;8.744;2023-04-25T12:48:19;1.65;;;0.47;;
10979;SDS011;5543;51.734;8.744;2023-04-25T12:50:49;0.10;;;0.10;;
10979;SDS011;5543;51.734;8.744;2023-04-25T12:53:19;0.45;;;0.45;;
10979;SDS011;5543;51.734;8.744;2023-04-25T12:55:48;0.35;;;0.35;;
10979;SDS011;5543;51.734;8.744;2023-04-25T12:58:17;0.17;;;0.17;;
10979;SDS011;5543;51.734;8.744;2023-04-25T13:00:46;0.13;;;0.13;;
10979;SDS011;5543;51.734;8.744;2023-04-25T13:03:14;0.20;;;0.20;;
10979;SDS011;5543;51.734;8.744;2023-04-25T13:05:43;0.32;;;0.32;;
10979;SDS011;5543;51.734;8.744;2023-04-25T13:08:13;0.28;;;0.28;;
10979;SDS011;5543;51.734;8.744;2023-04-25T13:10:41;0.20;;;0.20;;
10979;SDS011;5543;51.734;8.744;2023-04-25T13:13:09;0.20;;;0.20;;
10979;SDS011;5543;51.734;8.744;2023-04-25T13:15:37;0.43;;;0.40;;
10979;SDS011;5543;51.734;8.744;2023-04-25T13:18:06;0.30;;;0.30;;
10979;SDS011;5543;51.734;8.744;2023-04-25T13:20:34;0.40;;;0.30;;
10979;SDS011;5543;51.734;8.744;2023-04-25T13:23:02;0.60;;;0.30;;
10979;SDS011;5543;51.734;8.744;2023-04-25T13:25:32;0.20;;;0.20;;
10979;SDS011;5543;51.734;8.744;2023-04-25T13:28:00;0.30;;;0.30;;
10979;SDS011;5543;51.734;8.744;2023-04-25T13:30:29;0.20;;;0.20;;
10979;SDS011;5543;51.734;8.744;2023-04-25T13:32:57;0.45;;;0.10;;
10979;SDS011;5543;51.734;8.744;2023-04-25T13:35:30;0.40;;;0.30;;
10979;SDS011;5543;51.734;8.744;2023-04-25T13:37:58;0.22;;;0.20;;
10979;SDS011;5543;51.734;8.744;2023-04-25T13:40:27;0.47;;;0.47;;
10979;SDS011;5543;51.734;8.744;2023-04-25T13:42:56;0.40;;;0.32;;
10979;SDS011;5543;51.734;8.744;2023-04-25T13:45:25;0.45;;;0.40;;
10979;SDS011;5543;51.734;8.744;2023-04-25T13:47:54;0.30;;;0.30;;
10979;SDS011;5543;51.734;8.744;2023-04-25T13:50:22;1.00;;;0.50;;
10979;SDS011;5543;51.734;8.744;2023-04-25T13:52:50;0.60;;;0.60;;
10979;SDS011;5543;51.734;8.744;2023-04-25T13:55:18;0.55;;;0.55;;
10979;SDS011;5543;51.734;8.744;2023-04-25T13:57:47;0.30;;;0.30;;
10979;SDS011;5543;51.734;8.744;2023-04-25T14:00:17;0.45;;;0.40;;
10979;SDS011;5543;51.734;8.744;2023-04-25T14:02:46;0.43;;;0.43;;
10979;SDS011;5543;51.734;8.744;2023-04-25T14:05:16;0.30;;;0.30;;
10979;SDS011;5543;51.734;8.744;2023-04-25T14:07:44;0.22;;;0.22;;
10979;SDS011;5543;51.734;8.744;2023-04-25T14:10:13;0.40;;;0.40;;
10979;SDS011;5543;51.734;8.744;2023-04-25T14:12:42;0.50;;;0.35;;
10979;SDS011;5543;51.734;8.744;2023-04-25T14:15:10;0.20;;;0.20;;
10979;SDS011;5543;51.734;8.744;2023-04-25T14:17:40;0.40;;;0.38;;
10979;SDS011;5543;51.734;8.744;2023-04-25T14:20:08;0.68;;;0.40;;
10979;SDS011;5543;51.734;8.744;2023-04-25T14:22:37;0.22;;;0.22;;
10979;SDS011;5543;51.734;8.744;2023-04-25T14:25:09;0.28;;;0.28;;
10979;SDS011;5543;51.734;8.744;2023-04-25T14:27:37;0.35;;;0.35;;
10979;SDS011;5543;51.734;8.744;2023-04-25T14:30:06;0.43;;;0.30;;
10979;SDS011;5543;51.734;8.744;2023-04-25T14:32:35;0.30;;;0.30;;
10979;SDS011;5543;51.734;8.744;2023-04-25T14:35:05;0.22;;;0.22;;
10979;SDS011;5543;51.734;8.744;2023-04-25T14:37:35;0.40;;;0.40;;
10979;SDS011;5543;51.734;8.744;2023-04-25T14:40:03;0.20;;;0.20;;
10979;SDS011;5543;51.734;8.744;2023-04-25T14:42:35;0.20;;;0.20;;
10979;SDS011;5543;51.734;8.744;2023-04-25T14:45:03;0.30;;;0.30;;
10979;SDS011;5543;51.734;8.744;2023-04-25T14:47:33;0.20;;;0.20;;
10979;SDS011;5543;51.734;8.744;2023-04-25T14:50:02;0.13;;;0.13;;
10979;SDS011;5543;51.734;8.744;2023-04-25T14:52:33;1.27;;;0.45;;
10979;SDS011;5543;51.734;8.744;2023-04-25T14:55:01;0.20;;;0.20;;
10979;SDS011;5543;51.734;8.744;2023-04-25T14:57:31;0.15;;;0.15;;
10979;SDS011;5543;51.734;8.744;2023-04-25T15:00:00;0.20;;;0.20;;
10979;SDS011;5543;51.734;8.744;2023-04-25T15:02:31;0.38;;;0.28;;
10979;SDS011;5543;51.734;8.744;2023-04-25T15:04:59;0.47;;;0.32;;
10979;SDS011;5543;51.734;8.744;2023-04-25T15:07:28;0.30;;;0.30;;
10979;SDS011;5543;51.734;8.744;2023-04-25T15:09:58;0.00;;;0.00;;
10979;SDS011;5543;51.734;8.744;2023-04-25T15:12:26;0.55;;;0.28;;